Time;durP1;ratioP1;P1;durP2;ratioP2;P2;SDS_P1;SDS_P2;PMS_P1;PMS_P2;Temp;Humidity;BMP_temperature;BMP_pressure;BME280_temperature;BME280_humidity;BME280_pressure;Samples;Min_cycle;Max_cycle;Signal;HPM_P1;HPM_P2
2023/01/24 00:02:41;;;;;;;40.83;22.50;;;;;2.40;103156.00;;;;10362651;28;20565;-78
2023/01/24 00:07:43;;;;;;;41.30;23.20;;;;;2.40;103152.00;;;;10393631;28;20206;-78
2023/01/24 00:12:45;;;;;;;44.07;23.87;;;;;2.40;103148.00;;;;10374995;28;20218;-78
2023/01/24 00:17:47;;;;;;;45.83;22.67;;;;;2.40;103142.00;;;;10402884;28;20210;-78
2023/01/24 00:22:49;;;;;;;43.43;22.43;;;;;2.40;103146.00;;;;10361261;28;20211;-78
2023/01/24 00:27:51;;;;;;;37.30;21.43;;;;;2.40;103152.00;;;;10402968;28;20198;-78
2023/01/24 00:32:52;;;;;;;41.57;21.47;;;;;2.40;103152.00;;;;10404410;28;20342;-78
2023/01/24 00:37:54;;;;;;;40.77;23.43;;;;;2.40;103141.00;;;;10352719;28;20224;-78
2023/01/24 00:42:57;;;;;;;38.97;20.80;;;;;2.40;103147.00;;;;10338940;28;20188;-78
2023/01/24 00:48:00;;;;;;;35.70;20.43;;;;;2.40;103138.00;;;;10414768;28;20281;-78
2023/01/24 00:53:03;;;;;;;40.77;21.73;;;;;2.40;103131.00;;;;10374463;28;20203;-78
2023/01/24 00:58:05;;;;;;;38.90;22.23;;;;;2.40;103132.00;;;;10376773;28;20219;-78
2023/01/24 01:03:11;;;;;;;42.80;22.07;;;;;2.40;103132.00;;;;10356866;28;20199;-78
2023/01/24 01:08:14;;;;;;;42.57;21.47;;;;;2.40;103130.00;;;;10338930;28;20214;-78
2023/01/24 01:13:16;;;;;;;37.00;21.40;;;;;2.40;103133.00;;;;10374855;28;20672;-78
2023/01/24 01:18:18;;;;;;;39.23;21.60;;;;;2.40;103129.00;;;;10391887;28;20277;-78
2023/01/24 01:23:19;;;;;;;36.50;21.33;;;;;2.40;103140.00;;;;10374505;28;20234;-78
2023/01/24 01:28:21;;;;;;;36.77;20.73;;;;;2.40;103143.00;;;;10386821;28;20202;-78
2023/01/24 01:33:24;;;;;;;37.47;19.97;;;;;2.40;103148.00;;;;10388310;28;20195;-78
2023/01/24 01:38:27;;;;;;;36.33;20.30;;;;;2.40;103151.00;;;;10357673;28;20219;-78
2023/01/24 01:43:30;;;;;;;33.43;20.77;;;;;2.40;103142.00;;;;10367569;28;20718;-78
2023/01/24 01:48:37;;;;;;;36.33;19.73;;;;;2.30;103138.00;;;;10356717;28;20204;-78
2023/01/24 01:54:04;;;;;;;36.70;19.83;;;;;2.40;103145.00;;;;10350125;28;20230;-78
2023/01/24 01:59:10;;;;;;;36.37;19.10;;;;;2.30;103141.00;;;;10334345;28;20571;-78
2023/01/24 02:04:25;;;;;;;30.27;19.37;;;;;2.30;103135.00;;;;10342565;28;20251;-75
2023/01/24 02:09:31;;;;;;;31.30;17.80;;;;;2.30;103122.00;;;;10366039;28;20209;-75
2023/01/24 02:20:23;;;;;;;30.77;18.10;;;;;2.30;103116.00;;;;10399788;28;20267;-75
2023/01/24 02:25:34;;;;;;;32.17;18.63;;;;;2.30;103114.00;;;;10431562;28;20198;-75
2023/01/24 02:30:38;;;;;;;34.43;18.10;;;;;2.30;103118.00;;;;10410341;28;20877;-75
2023/01/24 02:35:40;;;;;;;33.47;19.37;;;;;2.30;103117.00;;;;10342390;28;20191;-75
2023/01/24 02:40:43;;;;;;;31.77;18.77;;;;;2.30;103114.00;;;;10362571;28;20581;-75
2023/01/24 02:45:45;;;;;;;32.10;17.87;;;;;2.30;103111.00;;;;10348436;28;20253;-75
2023/01/24 03:01:33;;;;;;;33.63;18.73;;;;;2.30;103115.00;;;;10371045;28;20775;-75
2023/01/24 03:06:35;;;;;;;33.40;18.57;;;;;2.30;103116.00;;;;10350075;28;20198;-75
2023/01/24 03:11:37;;;;;;;33.43;19.30;;;;;2.30;103109.00;;;;10361881;28;20208;-75
2023/01/24 03:43:26;;;;;;;30.60;19.07;;;;;2.30;103096.00;;;;10368759;28;20187;-75
2023/01/24 03:48:34;;;;;;;26.30;15.70;;;;;2.30;103102.00;;;;10328384;28;20211;-75
2023/01/24 03:53:37;;;;;;;29.77;17.07;;;;;2.30;103104.00;;;;10344114;28;20444;-75
2023/01/24 03:58:39;;;;;;;30.20;17.83;;;;;2.30;103098.00;;;;10329443;28;20935;-75
2023/01/24 04:03:44;;;;;;;27.93;16.60;;;;;2.30;103093.00;;;;10328272;28;20207;-75
2023/01/24 04:08:46;;;;;;;30.13;18.10;;;;;2.20;103091.00;;;;10333666;28;20840;-75
2023/01/24 04:13:49;;;;;;;30.87;17.93;;;;;2.20;103087.00;;;;10341678;28;20257;-75
2023/01/24 04:18:51;;;;;;;24.00;15.27;;;;;2.30;103095.00;;;;10421716;28;20223;-75
2023/01/24 04:23:56;;;;;;;26.90;17.17;;;;;2.20;103085.00;;;;10375747;28;20195;-75
2023/01/24 04:28:58;;;;;;;28.63;15.90;;;;;2.20;103094.00;;;;10341905;28;20238;-75
2023/01/24 04:34:01;;;;;;;27.23;15.57;;;;;2.20;103096.00;;;;10384039;28;20211;-75
2023/01/24 04:39:05;;;;;;;29.13;17.23;;;;;2.20;103096.00;;;;10374234;28;20234;-75
2023/01/24 04:44:14;;;;;;;27.70;15.40;;;;;2.20;103089.00;;;;10378124;28;20207;-75
2023/01/24 04:49:17;;;;;;;27.27;17.03;;;;;2.20;103092.00;;;;10386417;28;20209;-75
2023/01/24 04:54:21;;;;;;;28.27;16.93;;;;;2.20;103092.00;;;;10409688;28;20281;-75
2023/01/24 04:59:24;;;;;;;31.73;17.77;;;;;2.10;103089.00;;;;10425661;28;20224;-75
2023/01/24 05:04:26;;;;;;;33.13;18.47;;;;;2.10;103095.00;;;;10394986;28;20202;-75
2023/01/24 05:09:29;;;;;;;29.23;16.50;;;;;2.10;103097.00;;;;10420211;28;20273;-75
2023/01/24 05:14:37;;;;;;;29.90;17.47;;;;;2.10;103100.00;;;;10392979;28;20281;-75
2023/01/24 05:19:39;;;;;;;34.00;18.73;;;;;2.10;103102.00;;;;10357116;28;20277;-75
2023/01/24 05:24:41;;;;;;;28.37;18.20;;;;;2.10;103104.00;;;;10373645;28;20295;-75
2023/01/24 05:29:44;;;;;;;34.07;18.90;;;;;2.10;103108.00;;;;10376374;28;20199;-75
2023/01/24 05:34:47;;;;;;;27.57;17.40;;;;;2.10;103111.00;;;;10373764;28;20577;-75
2023/01/24 05:39:50;;;;;;;32.23;17.60;;;;;2.10;103103.00;;;;10372515;28;20226;-75
2023/01/24 05:44:52;;;;;;;31.33;18.97;;;;;2.10;103113.00;;;;10384343;28;20198;-75
2023/01/24 05:49:54;;;;;;;31.63;17.93;;;;;2.10;103121.00;;;;10413438;28;20230;-75
2023/01/24 05:54:56;;;;;;;36.07;20.37;;;;;2.10;103119.00;;;;10397296;28;20764;-75
2023/01/24 06:00:11;;;;;;;32.57;17.70;;;;;2.10;103122.00;;;;10367255;28;20223;-75
2023/01/24 06:05:25;;;;;;;32.97;18.87;;;;;2.10;103121.00;;;;10347877;28;20342;-75
2023/01/24 06:10:27;;;;;;;35.63;20.87;;;;;2.10;103123.00;;;;10363460;28;20194;-75
2023/01/24 06:15:39;;;;;;;38.37;21.00;;;;;2.00;103129.00;;;;10378599;28;20265;-75
2023/01/24 06:20:45;;;;;;;37.70;20.87;;;;;2.00;103143.00;;;;10371267;28;20314;-75
2023/01/24 06:25:47;;;;;;;39.93;21.57;;;;;2.00;103140.00;;;;10386264;28;20195;-75
2023/01/24 06:31:20;;;;;;;43.90;23.40;;;;;2.10;103142.00;;;;10366291;28;20200;-75
2023/01/24 06:36:40;;;;;;;36.47;21.57;;;;;2.00;103142.00;;;;10336935;28;20717;-75
2023/01/24 06:41:43;;;;;;;42.27;23.70;;;;;2.00;103155.00;;;;10386844;28;20431;-75
2023/01/24 06:46:45;;;;;;;41.37;22.30;;;;;2.00;103160.00;;;;10371665;28;20241;-75
2023/01/24 06:51:51;;;;;;;41.80;21.60;;;;;2.00;103163.00;;;;10368756;28;20203;-75
2023/01/24 06:56:53;;;;;;;46.93;25.27;;;;;2.00;103161.00;;;;10370112;28;20735;-75
2023/01/24 07:01:55;;;;;;;48.63;26.33;;;;;2.00;103167.00;;;;10344395;28;20227;-75
2023/01/24 07:06:57;;;;;;;44.07;22.80;;;;;2.00;103170.00;;;;10345240;28;20202;-75
2023/01/24 07:11:59;;;;;;;39.07;22.10;;;;;2.00;103175.00;;;;10361197;28;20250;-75
2023/01/24 07:17:01;;;;;;;42.37;22.47;;;;;2.00;103178.00;;;;10377111;28;20242;-75
2023/01/24 07:22:03;;;;;;;44.93;23.50;;;;;2.00;103180.00;;;;10369279;28;20234;-75
2023/01/24 07:27:06;;;;;;;43.87;22.97;;;;;2.00;103186.00;;;;10372599;28;20199;-75
2023/01/24 07:32:09;;;;;;;49.00;24.10;;;;;2.00;103185.00;;;;10386016;28;20282;-75
2023/01/24 07:37:13;;;;;;;48.30;25.73;;;;;2.00;103201.00;;;;10386473;28;20545;-75
2023/01/24 07:42:16;;;;;;;47.07;25.13;;;;;2.00;103204.00;;;;10390336;28;20225;-75
2023/01/24 07:47:18;;;;;;;42.27;25.13;;;;;2.00;103215.00;;;;10408085;28;20197;-75
2023/01/24 07:52:20;;;;;;;50.73;25.13;;;;;2.00;103215.00;;;;10418397;28;20724;-75
2023/01/24 07:57:24;;;;;;;43.33;24.37;;;;;2.00;103221.00;;;;10378921;28;20707;-75
2023/01/24 08:02:26;;;;;;;47.50;26.27;;;;;2.10;103228.00;;;;10378383;28;20238;-75
2023/01/24 08:07:30;;;;;;;50.07;25.80;;;;;2.10;103243.00;;;;10395057;28;20183;-75
2023/01/24 08:12:32;;;;;;;49.37;26.97;;;;;2.10;103241.00;;;;10388875;28;20694;-75
2023/01/24 08:17:36;;;;;;;46.53;25.40;;;;;2.10;103243.00;;;;10401404;28;20209;-75
2023/01/24 08:22:41;;;;;;;51.83;25.73;;;;;2.20;103237.00;;;;10359391;28;20226;-75
2023/01/24 08:27:58;;;;;;;47.17;25.40;;;;;2.20;103238.00;;;;10409311;28;20201;-75
2023/01/24 08:33:01;;;;;;;47.53;25.87;;;;;2.20;103239.00;;;;10375307;28;20766;-75
2023/01/24 08:38:03;;;;;;;50.93;25.53;;;;;2.20;103244.00;;;;10369357;28;20270;-75
2023/01/24 08:43:05;;;;;;;49.13;27.00;;;;;2.20;103247.00;;;;10352402;28;20245;-75
2023/01/24 08:48:07;;;;;;;41.70;25.13;;;;;2.30;103255.00;;;;10368539;28;20230;-75
2023/01/24 08:53:09;;;;;;;45.30;24.27;;;;;2.30;103252.00;;;;10347706;28;20581;-75
2023/01/24 08:58:11;;;;;;;37.50;23.00;;;;;2.40;103256.00;;;;10355855;28;20210;-75
2023/01/24 09:03:16;;;;;;;37.97;23.93;;;;;2.40;103258.00;;;;10357940;28;20218;-75
2023/01/24 09:08:18;;;;;;;40.07;23.00;;;;;2.40;103264.00;;;;10358304;28;20199;-75
2023/01/24 09:13:21;;;;;;;38.57;21.53;;;;;2.40;103266.00;;;;10390844;28;20866;-75
2023/01/24 09:18:22;;;;;;;38.17;20.60;;;;;2.50;103275.00;;;;10431742;28;20198;-75
2023/01/24 09:23:24;;;;;;;35.70;21.07;;;;;2.50;103272.00;;;;10400134;28;20599;-75
2023/01/24 09:28:27;;;;;;;38.77;21.73;;;;;2.50;103278.00;;;;10416106;28;20194;-75
2023/01/24 09:33:29;;;;;;;34.83;19.53;;;;;2.60;103278.00;;;;10409712;28;20190;-75
2023/01/24 09:38:32;;;;;;;37.00;21.23;;;;;2.60;103281.00;;;;10373420;28;20280;-75
2023/01/24 09:43:43;;;;;;;38.90;22.77;;;;;2.70;103285.00;;;;10389744;28;20677;-75
2023/01/24 09:48:49;;;;;;;45.63;24.87;;;;;2.70;103279.00;;;;10413570;28;20253;-75
2023/01/24 09:53:55;;;;;;;44.40;25.07;;;;;2.70;103287.00;;;;10446408;28;20194;-75
2023/01/24 09:59:12;;;;;;;45.20;26.07;;;;;2.70;103285.00;;;;10413100;28;20217;-75
2023/01/24 10:04:34;;;;;;;42.33;23.63;;;;;2.70;103272.00;;;;10429290;28;20550;-75
2023/01/24 10:10:03;;;;;;;46.33;24.70;;;;;2.80;103278.00;;;;10413530;28;20676;-75
2023/01/24 10:15:33;;;;;;;40.57;23.23;;;;;2.90;103284.00;;;;10382334;28;20233;-75
2023/01/24 10:20:59;;;;;;;39.47;23.90;;;;;2.90;103275.00;;;;10345831;28;20235;-75
2023/01/24 10:26:14;;;;;;;43.17;23.80;;;;;3.00;103287.00;;;;10373315;28;20253;-75
2023/01/24 10:31:22;;;;;;;41.40;23.33;;;;;3.00;103289.00;;;;10371237;28;20293;-75
2023/01/24 10:36:34;;;;;;;45.00;24.83;;;;;3.10;103283.00;;;;10372504;28;20249;-75
2023/01/24 10:41:37;;;;;;;47.93;27.17;;;;;3.20;103281.00;;;;10371894;28;20215;-75
2023/01/24 10:47:18;;;;;;;43.93;25.63;;;;;3.20;103276.00;;;;10362655;28;20205;-75
2023/01/24 10:52:21;;;;;;;45.80;24.63;;;;;3.20;103278.00;;;;10345989;28;20250;-75
2023/01/24 10:57:44;;;;;;;50.40;26.40;;;;;3.30;103287.00;;;;10345789;28;20258;-75
2023/01/24 11:02:51;;;;;;;45.27;27.57;;;;;3.30;103281.00;;;;10361949;28;20210;-75
2023/01/24 11:07:59;;;;;;;41.30;25.07;;;;;3.30;103273.00;;;;10345483;28;20294;-75
2023/01/24 11:13:18;;;;;;;43.23;25.47;;;;;3.30;103277.00;;;;10362256;28;20215;-75
2023/01/24 11:18:27;;;;;;;43.07;23.73;;;;;3.40;103276.00;;;;10414574;28;20210;-75
2023/01/24 11:23:30;;;;;;;42.43;24.60;;;;;3.40;103272.00;;;;10418607;28;20210;-75
2023/01/24 11:28:36;;;;;;;44.67;25.77;;;;;3.40;103272.00;;;;10393784;28;20191;-75
2023/01/24 11:34:20;;;;;;;45.20;28.33;;;;;3.40;103272.00;;;;10366636;28;20506;-75
2023/01/24 11:39:48;;;;;;;43.53;24.27;;;;;3.40;103262.00;;;;10285662;28;20281;-75
2023/01/24 11:44:58;;;;;;;40.33;23.97;;;;;3.30;103266.00;;;;10363741;28;20209;-75
2023/01/24 11:50:22;;;;;;;45.23;24.60;;;;;3.30;103263.00;;;;10435223;28;20257;-75
2023/01/24 11:55:24;;;;;;;43.63;26.00;;;;;3.40;103253.00;;;;10417962;28;20293;-75
2023/01/24 12:00:52;;;;;;;50.90;26.53;;;;;3.40;103251.00;;;;10401681;28;20269;-75
2023/01/24 12:06:09;;;;;;;39.90;23.13;;;;;3.50;103236.00;;;;10406631;28;20218;-75
2023/01/24 12:11:25;;;;;;;46.43;26.03;;;;;3.50;103235.00;;;;10453830;28;20228;-75
2023/01/24 12:16:52;;;;;;;48.20;27.37;;;;;3.60;103226.00;;;;10435470;28;20276;-75
2023/01/24 12:21:56;;;;;;;45.53;25.03;;;;;3.70;103223.00;;;;10419036;28;20245;-75
2023/01/24 12:27:02;;;;;;;43.93;24.70;;;;;3.70;103213.00;;;;10435093;28;20240;-75
2023/01/24 12:32:22;;;;;;;38.87;23.97;;;;;3.70;103217.00;;;;10401885;28;20207;-75
2023/01/24 12:37:29;;;;;;;39.27;23.30;;;;;3.60;103200.00;;;;10375660;28;20787;-75
2023/01/24 12:42:57;;;;;;;39.47;23.63;;;;;3.60;103202.00;;;;10375016;28;20261;-75
2023/01/24 12:48:22;;;;;;;39.33;23.33;;;;;3.60;103206.00;;;;10424732;28;20202;-75
2023/01/24 12:53:36;;;;;;;38.83;23.40;;;;;3.50;103200.00;;;;10415319;28;20233;-75
2023/01/24 12:58:41;;;;;;;41.17;25.67;;;;;3.50;103191.00;;;;10415264;28;20190;-75
2023/01/24 13:03:49;;;;;;;42.83;24.23;;;;;3.60;103178.00;;;;10431992;28;20229;-75
2023/01/24 13:09:21;;;;;;;41.87;21.80;;;;;3.60;103177.00;;;;10431924;28;20807;-75
2023/01/24 13:14:34;;;;;;;38.80;22.73;;;;;3.50;103167.00;;;;10408265;28;20230;-75
2023/01/24 13:20:04;;;;;;;36.77;22.83;;;;;3.40;103169.00;;;;10394429;28;20872;-75
2023/01/24 13:25:51;;;;;;;37.23;22.93;;;;;3.40;103171.00;;;;10374624;28;20195;-75
2023/01/24 13:31:25;;;;;;;40.27;23.20;;;;;3.30;103180.00;;;;10388734;28;20876;-75
2023/01/24 13:36:47;;;;;;;40.67;23.57;;;;;3.30;103173.00;;;;10375730;28;20671;-75
2023/01/24 13:42:00;;;;;;;40.87;23.33;;;;;3.40;103162.00;;;;10388245;28;20740;-75
2023/01/24 13:47:04;;;;;;;46.93;26.80;;;;;3.40;103163.00;;;;10405508;28;20202;-75
2023/01/24 13:52:30;;;;;;;43.53;25.17;;;;;3.40;103165.00;;;;10413617;28;20241;-75
2023/01/24 13:57:36;;;;;;;45.10;24.97;;;;;3.40;103169.00;;;;10397022;28;20247;-75
2023/01/24 14:02:42;;;;;;;44.80;25.30;;;;;3.40;103173.00;;;;10381287;28;20819;-75
2023/01/24 14:07:45;;;;;;;40.73;23.23;;;;;3.30;103171.00;;;;10315810;28;20218;-75
2023/01/24 14:12:54;;;;;;;40.80;23.70;;;;;3.20;103177.00;;;;10346793;28;20302;-75
2023/01/24 14:17:57;;;;;;;43.10;24.30;;;;;3.20;103166.00;;;;10403784;28;20214;-75
2023/01/24 14:23:02;;;;;;;38.87;22.07;;;;;3.20;103167.00;;;;10382978;28;20222;-75
2023/01/24 14:28:32;;;;;;;37.97;21.77;;;;;3.10;103173.00;;;;10348865;28;20255;-75
2023/01/24 14:33:34;;;;;;;43.13;24.23;;;;;3.00;103165.00;;;;10358927;28;20218;-75
2023/01/24 14:38:36;;;;;;;38.47;22.53;;;;;2.90;103166.00;;;;10371514;28;20744;-75
2023/01/24 14:43:39;;;;;;;42.77;25.60;;;;;2.90;103170.00;;;;10348697;28;20570;-75
2023/01/24 14:48:41;;;;;;;41.43;23.97;;;;;2.80;103171.00;;;;10371045;28;20197;-75
2023/01/24 14:53:48;;;;;;;41.93;24.47;;;;;2.70;103170.00;;;;10371939;28;20290;-75
2023/01/24 14:58:51;;;;;;;41.23;22.53;;;;;2.70;103175.00;;;;10371203;28;20241;-75
2023/01/24 15:03:57;;;;;;;44.57;26.07;;;;;2.80;103174.00;;;;10369861;28;20219;-75
2023/01/24 15:09:01;;;;;;;42.50;25.43;;;;;2.70;103168.00;;;;10369201;28;20215;-75
2023/01/24 15:14:07;;;;;;;37.03;22.23;;;;;2.70;103166.00;;;;10369598;28;20231;-75
2023/01/24 15:19:16;;;;;;;37.33;22.67;;;;;2.60;103168.00;;;;10369255;28;20194;-75
2023/01/24 15:24:30;;;;;;;37.50;20.87;;;;;2.60;103162.00;;;;10385826;28;20716;-75
2023/01/24 15:29:45;;;;;;;37.37;21.37;;;;;2.50;103165.00;;;;10370862;28;20210;-75
2023/01/24 15:34:47;;;;;;;34.83;21.37;;;;;2.40;103176.00;;;;10359956;28;20204;-75
2023/01/24 15:39:57;;;;;;;35.80;23.00;;;;;2.30;103188.00;;;;10345221;28;20212;-75
2023/01/24 15:45:01;;;;;;;40.73;23.40;;;;;2.30;103181.00;;;;10350507;28;20207;-75
2023/01/24 15:55:39;;;;;;;34.00;20.17;;;;;2.20;103181.00;;;;10385238;28;20225;-75
2023/01/24 16:00:58;;;;;;;40.30;20.97;;;;;2.10;103192.00;;;;10368112;28;20227;-75
2023/01/24 16:06:00;;;;;;;34.80;21.10;;;;;2.10;103181.00;;;;10369439;28;20263;-75
2023/01/24 16:11:03;;;;;;;36.93;22.07;;;;;2.10;103182.00;;;;10369517;28;20192;-75
2023/01/24 16:16:07;;;;;;;37.13;21.13;;;;;2.00;103177.00;;;;10372896;28;20219;-75
2023/01/24 16:21:09;;;;;;;32.40;20.17;;;;;2.00;103185.00;;;;10358433;28;20254;-75
2023/01/24 16:26:23;;;;;;;36.53;21.27;;;;;2.00;103187.00;;;;10365292;28;20215;-75
2023/01/24 16:31:25;;;;;;;39.03;22.90;;;;;1.90;103170.00;;;;10371343;28;20200;-75
2023/01/24 16:36:27;;;;;;;36.53;21.70;;;;;1.90;103182.00;;;;10350503;28;20223;-75
2023/01/24 16:41:29;;;;;;;38.70;22.07;;;;;1.90;103184.00;;;;10333725;28;20230;-74
2023/01/24 16:46:31;;;;;;;36.00;20.80;;;;;1.90;103177.00;;;;10343893;28;20258;-75
2023/01/24 16:51:33;;;;;;;29.47;18.63;;;;;1.80;103187.00;;;;10350198;28;20191;-75
2023/01/24 16:56:35;;;;;;;29.57;17.30;;;;;1.80;103194.00;;;;10354257;28;20278;-75
2023/01/24 17:01:37;;;;;;;31.13;19.13;;;;;1.80;103189.00;;;;10374123;28;20293;-75
2023/01/24 17:06:39;;;;;;;33.97;20.70;;;;;1.80;103190.00;;;;10374426;28;20340;-75
2023/01/24 17:11:41;;;;;;;36.93;20.77;;;;;1.80;103191.00;;;;10355638;28;20207;-75
2023/01/24 17:16:43;;;;;;;31.83;20.10;;;;;1.80;103201.00;;;;10418151;28;20202;-75
2023/01/24 17:21:45;;;;;;;35.20;21.77;;;;;1.80;103202.00;;;;10392092;28;20597;-75
2023/01/24 17:26:48;;;;;;;36.70;22.23;;;;;1.80;103201.00;;;;10371286;28;20209;-75
2023/01/24 17:31:50;;;;;;;39.40;23.73;;;;;1.80;103199.00;;;;10381076;28;20201;-74
2023/01/24 17:36:52;;;;;;;34.10;20.17;;;;;1.80;103197.00;;;;10375921;28;20187;-75
2023/01/24 17:41:54;;;;;;;35.33;21.33;;;;;1.80;103195.00;;;;10406001;28;20219;-75
2023/01/24 17:46:56;;;;;;;38.00;21.90;;;;;1.80;103205.00;;;;10367172;28;20695;-75
2023/01/24 17:51:59;;;;;;;39.17;22.00;;;;;1.80;103202.00;;;;10370540;28;20198;-75
2023/01/24 17:57:02;;;;;;;37.40;20.83;;;;;1.80;103209.00;;;;10338756;28;20272;-75
2023/01/24 18:02:04;;;;;;;35.30;20.13;;;;;1.70;103208.00;;;;10382881;28;20948;-74
2023/01/24 18:07:08;;;;;;;31.93;17.53;;;;;1.70;103214.00;;;;10364102;28;20200;-75
2023/01/24 18:12:10;;;;;;;30.37;16.73;;;;;1.70;103217.00;;;;10371038;28;20685;-75
2023/01/24 18:17:12;;;;;;;30.60;16.90;;;;;1.70;103214.00;;;;10385363;28;20207;-75
2023/01/24 18:22:14;;;;;;;31.27;17.50;;;;;1.60;103206.00;;;;10372237;28;20602;-75
2023/01/24 18:27:18;;;;;;;31.33;18.63;;;;;1.60;103203.00;;;;10378438;28;20666;-75
2023/01/24 18:32:20;;;;;;;32.57;18.63;;;;;1.60;103221.00;;;;10378289;28;20191;-75
2023/01/24 18:37:23;;;;;;;32.03;18.93;;;;;1.60;103199.00;;;;10363584;28;20203;-75
2023/01/24 18:42:25;;;;;;;36.47;20.10;;;;;1.60;103205.00;;;;10366349;28;20226;-75
2023/01/24 18:47:27;;;;;;;29.60;18.50;;;;;1.50;103199.00;;;;10370042;28;20207;-75
2023/01/24 18:52:29;;;;;;;36.13;19.73;;;;;1.50;103200.00;;;;10361044;28;20194;-75
2023/01/24 18:57:31;;;;;;;33.00;19.20;;;;;1.50;103190.00;;;;10382219;28;20573;-75
2023/01/24 19:02:33;;;;;;;30.33;17.40;;;;;1.50;103194.00;;;;10362915;28;20215;-75
2023/01/24 19:07:38;;;;;;;30.57;17.90;;;;;1.50;103194.00;;;;10369151;28;20249;-75
2023/01/24 19:12:42;;;;;;;34.20;17.90;;;;;1.50;103193.00;;;;10378712;28;20226;-75
2023/01/24 19:17:48;;;;;;;31.53;17.30;;;;;1.50;103198.00;;;;10369207;28;20197;-75
2023/01/24 19:22:49;;;;;;;31.57;18.20;;;;;1.50;103209.00;;;;10366511;28;20222;-75
2023/01/24 19:27:51;;;;;;;27.67;16.97;;;;;1.50;103199.00;;;;10351407;28;20269;-75
2023/01/24 19:32:53;;;;;;;32.73;18.17;;;;;1.50;103204.00;;;;10352200;28;20222;-75
2023/01/24 19:37:55;;;;;;;34.57;19.27;;;;;1.50;103197.00;;;;10384530;28;20203;-75
2023/01/24 19:42:57;;;;;;;33.20;18.50;;;;;1.50;103204.00;;;;10371709;28;20214;-75
2023/01/24 19:47:59;;;;;;;33.13;19.77;;;;;1.50;103200.00;;;;10387121;28;20727;-75
2023/01/24 19:53:08;;;;;;;29.67;18.60;;;;;1.50;103203.00;;;;10384482;28;20242;-75
2023/01/24 19:58:11;;;;;;;33.93;19.70;;;;;1.50;103197.00;;;;10369687;28;20254;-75
2023/01/24 20:03:13;;;;;;;34.63;18.93;;;;;1.50;103200.00;;;;10351965;28;20215;-75
2023/01/24 20:08:15;;;;;;;35.03;19.20;;;;;1.50;103201.00;;;;10362822;28;20677;-74
2023/01/24 20:13:17;;;;;;;33.27;19.63;;;;;1.50;103210.00;;;;10369563;28;20222;-75
2023/01/24 20:18:31;;;;;;;36.87;19.67;;;;;1.50;103205.00;;;;10369772;28;20191;-75
2023/01/24 20:23:35;;;;;;;35.00;19.93;;;;;1.50;103211.00;;;;10396848;28;20305;-74
2023/01/24 20:28:38;;;;;;;38.73;20.53;;;;;1.50;103212.00;;;;10374009;28;20198;-75
2023/01/24 20:33:40;;;;;;;34.17;18.87;;;;;1.50;103224.00;;;;10372490;28;20231;-75
2023/01/24 20:38:44;;;;;;;35.97;21.13;;;;;1.50;103214.00;;;;10387055;28;20191;-75
2023/01/24 20:43:50;;;;;;;31.60;18.83;;;;;1.50;103218.00;;;;10375066;28;20281;-75
2023/01/24 20:49:05;;;;;;;33.83;19.70;;;;;1.40;103225.00;;;;10374113;28;20199;-75
2023/01/24 20:54:08;;;;;;;33.87;19.37;;;;;1.40;103232.00;;;;10390433;28;20217;-75
2023/01/24 20:59:10;;;;;;;31.10;18.50;;;;;1.40;103221.00;;;;10380308;28;20211;-75
2023/01/24 21:04:12;;;;;;;35.70;22.87;;;;;1.40;103232.00;;;;10398628;28;20222;-75
2023/01/24 21:09:14;;;;;;;31.43;19.07;;;;;1.40;103226.00;;;;10385271;28;20198;-75
2023/01/24 21:14:19;;;;;;;36.33;19.67;;;;;1.40;103217.00;;;;10374256;28;20222;-75
2023/01/24 21:19:23;;;;;;;37.53;21.90;;;;;1.30;103229.00;;;;10365173;28;20199;-75
2023/01/24 21:24:25;;;;;;;35.57;21.03;;;;;1.30;103229.00;;;;10381193;28;20229;-75
2023/01/24 21:29:34;;;;;;;33.40;19.43;;;;;1.30;103236.00;;;;10376963;28;20190;-75
2023/01/24 21:34:36;;;;;;;31.47;18.23;;;;;1.30;103232.00;;;;10375130;28;20253;-75
2023/01/24 21:39:38;;;;;;;34.67;19.27;;;;;1.30;103219.00;;;;10387321;28;20230;-75
2023/01/24 21:44:40;;;;;;;38.53;22.07;;;;;1.30;103214.00;;;;10370993;28;20218;-75
2023/01/24 21:49:43;;;;;;;33.67;19.80;;;;;1.20;103216.00;;;;10366341;28;20615;-75
2023/01/24 21:54:45;;;;;;;36.80;21.53;;;;;1.20;103215.00;;;;10385134;28;20264;-75
2023/01/24 21:59:47;;;;;;;34.97;21.17;;;;;1.20;103208.00;;;;10374578;28;20681;-75
2023/01/24 22:04:50;;;;;;;32.23;17.73;;;;;1.20;103214.00;;;;10365018;28;20226;-75
2023/01/24 22:09:54;;;;;;;29.07;16.73;;;;;1.10;103221.00;;;;10360605;28;20345;-75
2023/01/24 22:14:58;;;;;;;32.47;18.47;;;;;1.20;103216.00;;;;10363074;28;20234;-75
2023/01/24 22:20:00;;;;;;;35.50;20.20;;;;;1.10;103202.00;;;;10368594;28;20804;-75
2023/01/24 22:25:02;;;;;;;34.70;19.33;;;;;1.10;103201.00;;;;10351932;28;20226;-74
2023/01/24 22:30:14;;;;;;;33.57;19.53;;;;;1.20;103195.00;;;;10379710;28;20871;-75
2023/01/24 22:35:18;;;;;;;34.13;19.37;;;;;1.10;103189.00;;;;10376911;28;20258;-75
2023/01/24 22:40:21;;;;;;;34.73;19.80;;;;;1.10;103185.00;;;;10363477;28;20195;-75
2023/01/24 22:45:28;;;;;;;36.87;19.87;;;;;1.10;103189.00;;;;10365350;28;20203;-75
2023/01/24 22:50:30;;;;;;;35.70;20.50;;;;;1.10;103182.00;;;;10364663;28;20282;-75
2023/01/24 22:55:32;;;;;;;34.20;19.63;;;;;1.10;103177.00;;;;10360461;28;20198;-75
2023/01/24 23:00:34;;;;;;;36.70;21.43;;;;;1.10;103180.00;;;;10386040;28;20200;-75
2023/01/24 23:05:36;;;;;;;34.33;20.23;;;;;1.10;103174.00;;;;10371834;28;20203;-75
2023/01/24 23:10:38;;;;;;;39.33;20.37;;;;;1.10;103166.00;;;;10361755;28;20199;-75
2023/01/24 23:26:20;;;;;;;35.83;19.20;;;;;1.00;103162.00;;;;10368120;28;20202;-75
2023/01/24 23:31:22;;;;;;;34.83;19.60;;;;;1.00;103153.00;;;;10360384;28;20317;-76
2023/01/24 23:36:24;;;;;;;37.53;21.37;;;;;1.10;103147.00;;;;10360133;28;20199;-75
2023/01/24 23:41:29;;;;;;;40.70;21.57;;;;;1.00;103143.00;;;;10368585;28;20203;-76
2023/01/24 23:46:30;;;;;;;41.33;22.53;;;;;1.00;103141.00;;;;10356948;28;20218;-76
2023/01/24 23:51:32;;;;;;;37.73;20.23;;;;;0.90;103142.00;;;;10396753;28;20203;-76
2023/01/24 23:56:34;;;;;;;38.47;21.73;;;;;0.90;103137.00;;;;10351329;28;20213;-76
